Arden, Nevada
Current Conditions -  °F | °C
As of 8:56 PM on Wednesday 26 Nov 2014 (Local Time) from KLAS Reporting Station
Clear Clear  
Wind Chill: 55°   Ceiling: Unl
Heat Index: 55°   Visibility: 10mi
Dew Point: 19°   Wind: 6mph
Humidity: 24%   Direction: 220°SW
Pressure: 30.28"   Gusts: NA
Location:  36.079°N, 115.211°W
Report Text: KLAS 270456Z 22005KT 10SM CLR 13/M07 A3028 RMK AO2 SLP251 T01281072
Loading
Personal Weather Stations






























Interactive Weather Map New forecast layout! Learn more

10-Day Weather Forecast

Advertisements
Track Severe Weather on mobile